createdAt,value
2019-02-22T00:01:12.551Z,4.85
2019-02-22T00:03:41.160Z,4.90
2019-02-22T00:06:09.683Z,4.88
2019-02-22T00:08:37.533Z,4.87
2019-02-22T00:11:06.095Z,4.93
2019-02-22T00:13:34.304Z,5.05
2019-02-22T00:16:02.138Z,5.27
2019-02-22T00:18:30.687Z,5.31
2019-02-22T00:20:59.416Z,5.25
2019-02-22T00:23:27.630Z,5.19
2019-02-22T00:25:55.801Z,5.31
2019-02-22T00:28:24.002Z,5.37
2019-02-22T00:30:51.991Z,5.32
2019-02-22T00:33:20.458Z,5.39
2019-02-22T00:35:48.676Z,5.42
2019-02-22T00:38:28.432Z,5.30
2019-02-22T00:41:15.882Z,5.25
2019-02-22T00:43:44.456Z,5.18
2019-02-22T00:46:13.037Z,5.10
2019-02-22T00:48:41.323Z,5.23
2019-02-22T00:51:09.847Z,5.32
2019-02-22T00:53:37.803Z,5.36
2019-02-22T00:56:06.006Z,5.35
2019-02-22T00:58:34.159Z,5.25
2019-02-22T01:01:02.323Z,5.47
2019-02-22T01:03:30.613Z,5.64
2019-02-22T01:05:58.128Z,5.59
2019-02-22T01:08:26.702Z,5.54
2019-02-22T01:10:54.942Z,5.55
2019-02-22T01:13:23.536Z,5.62
2019-02-22T01:15:51.329Z,5.61
2019-02-22T01:18:19.250Z,5.58
2019-02-22T01:20:54.390Z,5.57
2019-02-22T01:23:24.127Z,5.59
2019-02-22T01:25:52.677Z,5.58
2019-02-22T01:28:21.322Z,5.50
2019-02-22T01:30:49.183Z,5.58
2019-02-22T01:33:17.771Z,5.71
2019-02-22T01:35:46.364Z,5.82
2019-02-22T01:38:14.639Z,5.84
2019-02-22T01:40:44.165Z,5.74
2019-02-22T01:43:19.541Z,5.67
2019-02-22T01:48:56.793Z,5.61
2019-02-22T01:51:25.003Z,5.60
2019-02-22T01:53:54.110Z,5.68
2019-02-22T01:56:29.627Z,5.68
2019-02-22T01:58:58.363Z,5.67
2019-02-22T02:01:25.923Z,5.85
2019-02-22T02:03:54.074Z,5.83
2019-02-22T02:06:21.940Z,5.90
2019-02-22T02:08:50.113Z,5.89
2019-02-22T02:11:18.694Z,5.96
2019-02-22T02:13:46.883Z,6.09
2019-02-22T02:16:15.175Z,6.00
2019-02-22T02:18:43.744Z,6.09
2019-02-22T02:21:12.132Z,6.13
2019-02-22T02:23:40.315Z,6.14
2019-02-22T02:26:08.181Z,6.15
2019-02-22T02:28:36.364Z,6.23
2019-02-22T02:31:04.537Z,6.19
2019-02-22T02:33:32.773Z,6.13
2019-02-22T02:36:01.009Z,6.08
2019-02-22T02:38:29.219Z,6.06
2019-02-22T02:41:08.119Z,5.99
2019-02-22T02:43:34.054Z,5.89
2019-02-22T02:46:02.226Z,6.01
2019-02-22T02:48:30.395Z,6.13
2019-02-22T02:50:58.673Z,6.13
2019-02-22T02:53:26.491Z,5.96
2019-02-22T02:55:55.039Z,6.02
2019-02-22T02:58:23.321Z,5.94
2019-02-22T03:00:51.467Z,6.11
2019-02-22T03:03:19.594Z,6.07
2019-02-22T03:06:07.401Z,5.99
2019-02-22T03:08:36.594Z,5.86
2019-02-22T03:11:04.918Z,5.90
2019-02-22T03:13:33.687Z,5.90
2019-02-22T03:16:01.908Z,5.87
2019-02-22T03:18:30.457Z,5.91
2019-02-22T03:20:58.683Z,5.94
2019-02-22T03:23:26.937Z,5.95
2019-02-22T03:25:55.087Z,5.85
2019-02-22T03:28:23.377Z,5.74
2019-02-22T03:30:51.912Z,5.77
2019-02-22T03:33:20.450Z,5.86
2019-02-22T03:35:48.723Z,5.79
2019-02-22T03:38:17.245Z,5.91
2019-02-22T03:40:45.097Z,5.89
2019-02-22T03:43:13.357Z,5.77
2019-02-22T03:45:41.747Z,5.72
2019-02-22T03:48:09.623Z,5.69
2019-02-22T03:50:37.797Z,5.62
2019-02-22T03:53:11.107Z,5.68
2019-02-22T03:55:39.404Z,5.56
2019-02-22T03:58:07.750Z,5.59
2019-02-22T04:00:47.473Z,5.55
2019-02-22T04:03:15.274Z,5.51
2019-02-22T04:05:43.886Z,5.49
2019-02-22T04:08:12.047Z,5.44
2019-02-22T04:10:40.337Z,5.36
2019-02-22T04:13:08.617Z,5.35
2019-02-22T04:15:36.796Z,5.32
2019-02-22T04:18:05.052Z,5.24
2019-02-22T04:20:33.771Z,5.28
2019-02-22T04:23:01.950Z,5.30
2019-02-22T04:25:30.467Z,5.37
2019-02-22T04:27:59.042Z,5.47
2019-02-22T04:30:27.536Z,5.40
2019-02-22T04:32:55.726Z,5.39
2019-02-22T04:35:24.231Z,5.36
2019-02-22T04:37:52.557Z,5.39
2019-02-22T04:40:21.169Z,5.41
2019-02-22T04:42:49.841Z,5.31
2019-02-22T04:45:18.071Z,5.22
2019-02-22T04:47:46.298Z,5.16
2019-02-22T04:50:14.859Z,5.30
2019-02-22T04:52:43.287Z,5.28
2019-02-22T04:55:11.975Z,5.22
2019-02-22T04:57:40.261Z,5.15
2019-02-22T05:00:08.748Z,5.16
2019-02-22T05:02:36.656Z,5.20
2019-02-22T05:05:05.719Z,5.28
2019-02-22T05:07:33.853Z,5.29
2019-02-22T05:10:02.263Z,5.36
2019-02-22T05:12:30.485Z,5.59
2019-02-22T05:15:11.463Z,5.63
2019-02-22T05:17:38.578Z,5.54
2019-02-22T05:20:25.911Z,5.38
2019-02-22T05:23:03.248Z,5.33
2019-02-22T05:25:31.218Z,5.27
2019-02-22T05:27:59.490Z,5.18
2019-02-22T05:30:27.370Z,5.27
2019-02-22T05:32:55.660Z,5.18
2019-02-22T05:35:23.175Z,5.14
2019-02-22T05:37:51.759Z,5.15
2019-02-22T05:40:19.877Z,5.18
2019-02-22T05:42:48.070Z,5.09
2019-02-22T05:45:15.987Z,5.02
2019-02-22T05:47:44.578Z,5.09
2019-02-22T05:50:13.283Z,5.00
2019-02-22T05:52:41.922Z,4.95
2019-02-22T05:55:10.102Z,4.88
2019-02-22T05:57:38.283Z,4.86
2019-02-22T06:00:07.235Z,4.81
2019-02-22T06:02:35.152Z,4.80
2019-02-22T06:05:03.694Z,4.83
2019-02-22T06:07:31.549Z,4.86
2019-02-22T06:10:00.100Z,4.86
2019-02-22T06:12:34.453Z,4.93
2019-02-22T06:15:04.799Z,4.88
2019-02-22T06:17:33.475Z,4.93
2019-02-22T06:20:02.077Z,4.90
2019-02-22T06:22:30.668Z,4.91
2019-02-22T06:24:59.235Z,5.05
2019-02-22T06:27:27.462Z,5.16
2019-02-22T06:29:55.069Z,5.35
2019-02-22T06:32:23.299Z,5.33
2019-02-22T06:34:51.482Z,5.38
2019-02-22T06:37:20.074Z,5.38
2019-02-22T06:39:48.561Z,5.38
2019-02-22T06:42:16.803Z,5.30
2019-02-22T06:44:45.495Z,5.18
2019-02-22T06:47:13.724Z,5.20
2019-02-22T06:49:44.437Z,5.32
2019-02-22T06:52:18.843Z,5.33
2019-02-22T06:54:47.244Z,5.43
2019-02-22T06:57:15.142Z,5.40
2019-02-22T06:59:43.484Z,5.40
2019-02-22T07:02:11.681Z,5.41
2019-02-22T07:04:39.895Z,5.34
2019-02-22T07:07:08.115Z,5.25
2019-02-22T07:09:36.716Z,5.23
2019-02-22T07:12:08.965Z,5.16
2019-02-22T07:14:37.514Z,5.21
2019-02-22T07:20:33.903Z,5.28
2019-02-22T07:23:02.139Z,5.30
2019-02-22T07:25:30.053Z,5.37
2019-02-22T07:27:58.268Z,5.42
2019-02-22T07:30:26.918Z,5.29
2019-02-22T07:32:55.619Z,5.33
2019-02-22T07:35:23.928Z,5.35
2019-02-22T07:37:51.829Z,5.26
2019-02-22T07:40:20.219Z,5.24
2019-02-22T07:42:48.107Z,5.17
2019-02-22T07:45:16.526Z,5.12
2019-02-22T07:47:44.800Z,5.26
2019-02-22T07:50:12.258Z,5.31
2019-02-22T07:52:40.959Z,5.18
2019-02-22T07:55:10.290Z,5.16
2019-02-22T07:57:40.112Z,5.17
2019-02-22T08:00:14.825Z,5.20
2019-02-22T08:02:43.353Z,5.26
2019-02-22T08:05:11.890Z,5.26
2019-02-22T08:07:40.163Z,5.27
2019-02-22T08:10:08.596Z,5.23
2019-02-22T08:12:36.833Z,5.22
2019-02-22T08:15:05.110Z,5.24
2019-02-22T08:17:33.711Z,5.28
2019-02-22T08:20:02.296Z,5.29
2019-02-22T08:22:30.805Z,5.31
2019-02-22T08:24:59.365Z,5.30
2019-02-22T08:27:27.859Z,5.30
2019-02-22T08:29:56.154Z,5.26
2019-02-22T08:32:24.414Z,5.30
2019-02-22T08:34:52.936Z,5.37
2019-02-22T08:37:21.089Z,5.35
2019-02-22T08:39:58.335Z,5.33
2019-02-22T08:42:29.720Z,5.32
2019-02-22T08:44:58.309Z,5.36
2019-02-22T08:47:26.841Z,5.46
2019-02-22T08:49:55.392Z,5.54
2019-02-22T08:52:23.671Z,5.46
2019-02-22T08:54:51.900Z,5.53
2019-02-22T08:57:20.051Z,5.49
2019-02-22T08:59:48.678Z,5.55
2019-02-22T09:02:17.319Z,5.48
2019-02-22T09:04:45.194Z,5.47
2019-02-22T09:07:13.772Z,5.47
2019-02-22T09:09:42.064Z,5.52
2019-02-22T09:12:09.561Z,5.45
2019-02-22T09:14:37.751Z,5.43
2019-02-22T09:17:05.601Z,5.46
2019-02-22T09:19:33.545Z,5.50
2019-02-22T09:22:02.121Z,5.58
2019-02-22T09:24:30.663Z,5.61
2019-02-22T09:26:58.800Z,5.72
2019-02-22T09:29:27.013Z,5.79
2019-02-22T09:31:55.148Z,5.80
2019-02-22T09:34:23.749Z,5.79
2019-02-22T09:36:52.001Z,5.78
2019-02-22T09:39:20.017Z,5.80
2019-02-22T09:41:47.444Z,5.78
2019-02-22T09:44:16.063Z,5.76
2019-02-22T09:46:44.313Z,5.71
2019-02-22T09:49:12.922Z,5.75
2019-02-22T09:51:41.469Z,5.87
2019-02-22T09:54:10.033Z,5.94
2019-02-22T09:56:38.542Z,6.03
2019-02-22T09:59:06.720Z,6.09
2019-02-22T10:01:34.971Z,6.13
2019-02-22T10:04:02.949Z,6.16
2019-02-22T10:06:31.469Z,6.06
2019-02-22T10:09:00.018Z,6.06
2019-02-22T10:11:28.286Z,6.11
2019-02-22T10:14:06.337Z,5.99
2019-02-22T10:16:36.389Z,5.96
2019-02-22T10:19:04.603Z,5.96
2019-02-22T10:21:32.930Z,6.04
2019-02-22T10:24:01.566Z,6.12
2019-02-22T10:26:29.443Z,6.10
2019-02-22T10:28:57.630Z,6.10
2019-02-22T10:31:25.890Z,6.09
2019-02-22T10:33:54.013Z,6.04
2019-02-22T10:36:22.676Z,6.05
2019-02-22T10:38:51.015Z,5.97
2019-02-22T10:41:19.437Z,5.91
2019-02-22T10:43:47.430Z,5.87
2019-02-22T10:46:15.910Z,5.88
2019-02-22T10:48:44.534Z,5.88
2019-02-22T10:51:12.864Z,5.90
2019-02-22T10:53:41.454Z,5.91
2019-02-22T10:56:09.645Z,6.00
2019-02-22T10:58:37.901Z,6.17
2019-02-22T11:01:06.109Z,6.40
2019-02-22T11:03:34.059Z,6.61
2019-02-22T11:06:02.699Z,7.11
2019-02-22T11:08:31.046Z,8.29
2019-02-22T11:10:58.464Z,9.23
2019-02-22T11:13:26.780Z,9.46
2019-02-22T11:15:55.033Z,9.77
2019-02-22T11:18:22.945Z,9.59
2019-02-22T11:20:51.028Z,9.33
2019-02-22T11:23:19.315Z,8.93
2019-02-22T11:25:47.489Z,8.41
2019-02-22T11:28:15.698Z,8.13
2019-02-22T11:30:44.259Z,7.95
2019-02-22T11:33:12.875Z,7.87
2019-02-22T11:35:41.529Z,7.72
2019-02-22T11:38:09.725Z,7.57
2019-02-22T11:40:37.697Z,7.66
2019-02-22T11:43:06.174Z,7.79
2019-02-22T11:45:34.712Z,7.87
2019-02-22T11:48:09.208Z,8.02
2019-02-22T11:50:39.289Z,8.10
2019-02-22T11:53:07.527Z,8.12
2019-02-22T11:58:37.628Z,8.59
2019-02-22T12:04:08.367Z,9.82
2019-02-22T12:09:55.398Z,9.59
2019-02-22T12:15:25.610Z,8.86
2019-02-22T12:18:36.364Z,8.54
2019-02-22T12:21:10.630Z,8.38
2019-02-22T12:23:38.965Z,8.30
2019-02-22T12:26:07.531Z,8.35
2019-02-22T12:28:35.476Z,8.03
2019-02-22T12:31:03.821Z,7.89
2019-02-22T12:33:31.336Z,7.83
2019-02-22T12:35:59.902Z,7.79
2019-02-22T12:38:28.353Z,7.65
2019-02-22T12:41:08.099Z,7.65
2019-02-22T12:46:56.817Z,7.46
2019-02-22T12:49:44.579Z,7.28
2019-02-22T12:52:12.874Z,7.19
2019-02-22T12:54:41.441Z,7.06
2019-02-22T12:57:10.011Z,6.92
2019-02-22T13:03:29.596Z,6.78
2019-02-22T13:05:58.186Z,6.71
2019-02-22T13:08:26.726Z,6.76
2019-02-22T13:10:55.479Z,6.81
2019-02-22T13:14:04.159Z,6.84
2019-02-22T13:16:32.745Z,6.93
2019-02-22T13:19:00.730Z,7.07
2019-02-22T13:21:29.435Z,7.18
2019-02-22T13:23:57.656Z,7.34
2019-02-22T13:29:34.862Z,7.58
2019-02-22T13:32:03.069Z,7.54
2019-02-22T13:40:53.169Z,7.17
2019-02-22T13:43:21.779Z,7.07
2019-02-22T13:48:51.694Z,6.97
2019-02-22T13:51:19.969Z,7.07
2019-02-22T13:53:48.607Z,7.05
2019-02-22T13:56:15.813Z,7.12
2019-02-22T13:58:44.072Z,7.16
2019-02-22T14:01:12.269Z,7.31
2019-02-22T14:03:52.050Z,7.47
2019-02-22T14:09:22.421Z,7.98
2019-02-22T14:15:37.927Z,8.58
2019-02-22T14:18:00.781Z,8.94
2019-02-22T14:23:30.923Z,9.47
2019-02-22T14:26:10.682Z,9.61
2019-02-22T14:31:59.713Z,11.07
2019-02-22T14:38:10.402Z,12.47
2019-02-22T14:40:50.610Z,11.95
2019-02-22T14:46:27.712Z,10.35
2019-02-22T14:49:36.425Z,10.96
2019-02-22T14:52:05.235Z,12.06
2019-02-22T14:54:33.912Z,12.29
2019-02-22T14:57:02.180Z,12.92
2019-02-22T14:59:30.671Z,13.98
2019-02-22T15:01:58.301Z,14.85
2019-02-22T15:04:26.505Z,15.34
2019-02-22T15:06:54.461Z,16.02
2019-02-22T15:09:23.090Z,16.54
2019-02-22T15:11:51.775Z,16.09
2019-02-22T15:14:20.415Z,15.65
2019-02-22T15:17:07.841Z,14.81
2019-02-22T15:19:36.061Z,13.95
2019-02-22T15:22:04.698Z,13.76
2019-02-22T15:24:33.214Z,14.03
2019-02-22T15:27:12.773Z,14.48
2019-02-22T15:29:40.950Z,15.06
2019-02-22T15:32:09.235Z,15.27
2019-02-22T15:34:37.589Z,15.86
2019-02-22T15:37:05.086Z,15.72
2019-02-22T15:39:33.477Z,15.41
2019-02-22T15:42:02.169Z,14.99
2019-02-22T15:44:29.377Z,14.73
2019-02-22T15:46:58.074Z,14.43
2019-02-22T15:49:26.138Z,14.43
2019-02-22T15:51:54.802Z,13.71
2019-02-22T15:54:23.107Z,13.97
2019-02-22T15:56:50.982Z,14.08
2019-02-22T15:59:20.940Z,13.82
2019-02-22T16:01:56.129Z,13.94
2019-02-22T16:04:54.955Z,14.11
2019-02-22T16:07:23.581Z,13.50
2019-02-22T16:10:32.181Z,12.22
2019-02-22T16:13:00.900Z,10.74
2019-02-22T16:18:31.305Z,8.59
2019-02-22T16:21:39.630Z,8.04
2019-02-22T16:24:06.876Z,7.71
2019-02-22T16:26:52.041Z,7.40
2019-02-22T16:29:20.399Z,7.15
2019-02-22T16:34:48.481Z,6.69
2019-02-22T16:37:17.197Z,6.51
2019-02-22T16:39:45.761Z,6.39
2019-02-22T16:42:14.016Z,6.26
2019-02-22T16:44:42.281Z,6.15
2019-02-22T16:47:50.910Z,5.95
2019-02-22T16:50:50.446Z,5.77
2019-02-22T16:53:18.306Z,5.55
2019-02-22T16:55:46.630Z,5.33
2019-02-22T16:58:14.705Z,5.20
2019-02-22T17:00:42.623Z,5.06
2019-02-22T17:03:11.197Z,4.96
2019-02-22T17:05:38.776Z,4.89
2019-02-22T17:08:06.662Z,4.86
2019-02-22T17:10:34.929Z,4.83
2019-02-22T17:13:03.137Z,4.78
2019-02-22T17:15:31.385Z,4.76
2019-02-22T17:20:39.932Z,4.71
2019-02-22T17:23:08.618Z,4.66
2019-02-22T17:25:36.875Z,4.65
2019-02-22T17:28:04.730Z,4.62
2019-02-22T17:30:33.007Z,4.60
2019-02-22T17:33:01.246Z,4.57
2019-02-22T17:35:29.429Z,4.53
2019-02-22T17:37:58.002Z,4.50
2019-02-22T17:40:26.181Z,4.45
2019-02-22T17:42:54.464Z,4.36
2019-02-22T17:45:23.162Z,4.24
2019-02-22T17:47:51.546Z,4.05
2019-02-22T17:50:19.721Z,3.91
2019-02-22T17:52:48.104Z,3.78
2019-02-22T17:55:24.415Z,3.67
2019-02-22T17:57:53.068Z,3.54
2019-02-22T18:00:22.255Z,3.41
2019-02-22T18:02:50.952Z,3.31
2019-02-22T18:05:19.245Z,3.17
2019-02-22T18:07:47.826Z,3.07
2019-02-22T18:10:16.065Z,3.00
2019-02-22T18:12:44.808Z,2.93
2019-02-22T18:15:12.875Z,2.88
2019-02-22T18:17:42.060Z,2.78
2019-02-22T18:20:10.586Z,2.74
2019-02-22T18:23:19.185Z,2.73
2019-02-22T18:25:59.712Z,2.70
2019-02-22T18:31:48.392Z,2.60
2019-02-22T18:34:16.981Z,2.49
2019-02-22T18:36:45.610Z,2.38
2019-02-22T18:39:13.507Z,2.29
2019-02-22T18:41:42.236Z,2.34
2019-02-22T18:44:10.211Z,2.36
2019-02-22T18:46:37.764Z,2.26
2019-02-22T18:49:05.983Z,2.22
2019-02-22T18:51:33.515Z,2.23
2019-02-22T18:54:02.103Z,2.20
2019-02-22T18:56:30.797Z,2.19
2019-02-22T18:58:58.686Z,2.14
2019-02-22T19:01:26.647Z,2.15
2019-02-22T19:03:55.317Z,2.17
2019-02-22T19:06:22.898Z,2.13
2019-02-22T19:08:51.778Z,2.14
2019-02-22T19:11:20.332Z,2.17
2019-02-22T19:14:08.222Z,2.17
2019-02-22T19:16:36.561Z,2.10
2019-02-22T19:22:14.195Z,2.00
2019-02-22T19:24:42.806Z,2.04
2019-02-22T19:27:10.839Z,2.01
2019-02-22T19:29:39.451Z,1.87
2019-02-22T19:32:08.009Z,1.82
2019-02-22T19:34:36.840Z,1.81
2019-02-22T19:37:04.803Z,1.85
2019-02-22T19:39:33.091Z,1.93
2019-02-22T19:42:01.794Z,1.95
2019-02-22T19:44:30.461Z,1.93
2019-02-22T19:46:59.217Z,1.94
2019-02-22T19:49:27.978Z,1.94
2019-02-22T19:51:56.241Z,2.00
2019-02-22T19:54:24.517Z,1.96
2019-02-22T19:56:52.838Z,2.04
2019-02-22T19:59:21.726Z,1.97
2019-02-22T20:01:49.924Z,2.00
2019-02-22T20:04:17.858Z,1.90
2019-02-22T20:06:46.326Z,1.81
2019-02-22T20:09:14.612Z,1.78
2019-02-22T20:11:43.132Z,1.67
2019-02-22T20:14:11.757Z,1.66
2019-02-22T20:16:40.097Z,1.62
2019-02-22T20:19:08.752Z,1.49
2019-02-22T20:21:36.685Z,1.53
2019-02-22T20:24:04.618Z,1.54
2019-02-22T20:26:33.229Z,1.54
2019-02-22T20:29:01.502Z,1.48
2019-02-22T20:31:29.779Z,1.39
2019-02-22T20:33:58.165Z,1.36
2019-02-22T20:36:28.678Z,1.42
2019-02-22T20:39:15.029Z,1.36
2019-02-22T20:45:04.338Z,1.11
2019-02-22T20:47:32.712Z,1.19
2019-02-22T20:50:01.387Z,1.21
2019-02-22T20:53:09.775Z,1.25
2019-02-22T20:55:49.842Z,1.26
2019-02-22T21:01:16.632Z,1.23
2019-02-22T21:03:45.231Z,1.19
2019-02-22T21:06:14.031Z,1.18
2019-02-22T21:08:42.636Z,1.16
2019-02-22T21:11:10.502Z,1.12
2019-02-22T21:13:38.753Z,1.05
2019-02-22T21:16:38.875Z,1.06
2019-02-22T21:25:40.671Z,0.78
2019-02-22T21:31:07.782Z,0.84
2019-02-22T21:36:56.240Z,0.84
2019-02-22T21:39:43.781Z,0.79
2019-02-22T21:42:19.822Z,0.82
2019-02-22T21:47:54.822Z,0.96
2019-02-22T21:50:26.284Z,1.04
2019-02-22T21:55:56.131Z,1.08
2019-02-22T21:59:04.725Z,1.02
2019-02-22T22:01:32.642Z,1.06
2019-02-22T22:04:01.249Z,1.13
2019-02-22T22:06:29.579Z,1.20
2019-02-22T22:08:58.066Z,1.17
2019-02-22T22:11:25.962Z,1.26
2019-02-22T22:13:54.628Z,1.24
2019-02-22T22:16:23.253Z,1.25
2019-02-22T22:18:52.019Z,1.36
2019-02-22T22:21:20.212Z,1.43
2019-02-22T22:23:48.495Z,1.58
2019-02-22T22:26:16.655Z,1.71
2019-02-22T22:28:44.904Z,1.80
2019-02-22T22:31:13.122Z,1.82
2019-02-22T22:33:41.399Z,1.87
2019-02-22T22:36:09.683Z,1.89
2019-02-22T22:38:37.858Z,1.91
2019-02-22T22:41:06.157Z,1.99
2019-02-22T22:43:34.409Z,2.15
2019-02-22T22:46:03.119Z,2.26
2019-02-22T22:48:31.411Z,2.25
2019-02-22T22:51:00.198Z,2.30
2019-02-22T22:53:28.744Z,2.25
2019-02-22T22:55:56.673Z,2.24
2019-02-22T22:58:24.681Z,2.21
2019-02-22T23:01:34.709Z,2.13
2019-02-22T23:04:03.412Z,2.15
2019-02-22T23:06:51.093Z,2.10
2019-02-22T23:18:22.587Z,2.07
2019-02-22T23:21:09.829Z,2.13
2019-02-22T23:23:37.330Z,2.23
2019-02-22T23:26:05.553Z,2.33
2019-02-22T23:29:13.813Z,2.41
2019-02-22T23:31:42.589Z,2.39
2019-02-22T23:34:10.583Z,2.29
2019-02-22T23:40:01.211Z,2.29
2019-02-22T23:42:29.754Z,2.29
2019-02-22T23:50:58.363Z,2.21
2019-02-22T23:54:06.988Z,2.19
2019-02-22T23:56:35.678Z,2.15
2019-02-22T23:59:04.134Z,2.19
